Time;durP1;ratioP1;P1;durP2;ratioP2;P2;SDS_P1;SDS_P2;PMS_P1;PMS_P2;Temp;Humidity;BMP_temperature;BMP_pressure;BME280_temperature;BME280_humidity;BME280_pressure;Samples;Min_cycle;Max_cycle;Signal;HPM_P1;HPM_P2
2022/09/21 00:01:03;;;;;;;;;;;;;;;8.17;100.00;102663.28;5031315;28;19925;-72
2022/09/21 00:03:29;;;;;;;;;;;;;;;8.15;100.00;102665.91;5032105;28;21057;-72
2022/09/21 00:06:00;;;;;;;;;;;;;;;8.12;100.00;102671.22;5031564;28;20470;-71
2022/09/21 00:08:26;;;;;;;;;;;;;;;8.10;100.00;102665.06;5029986;28;21353;-72
2022/09/21 00:10:51;;;;;;;;;;;;;;;8.05;100.00;102664.22;5031395;28;20528;-72
2022/09/21 00:13:18;;;;;;;;;;;;;;;8.02;100.00;102665.97;5030816;28;20684;-71
2022/09/21 00:15:44;;;;;;;;;;;;;;;8.00;100.00;102662.47;5032645;28;19940;-71
2022/09/21 00:18:09;;;;;;;;;;;;;;;7.99;100.00;102665.13;5032831;28;19929;-72
2022/09/21 00:20:35;;;;;;;;;;;;;;;7.96;100.00;102666.00;5031681;28;19928;-71
2022/09/21 00:23:00;;;;;;;;;;;;;;;7.94;100.00;102673.06;5064428;28;19984;-71
2022/09/21 00:25:26;;;;;;;;;;;;;;;7.90;100.00;102676.59;5030751;28;19925;-72
2022/09/21 00:27:52;;;;;;;;;;;;;;;7.87;100.00;102674.88;5030743;28;19928;-71
2022/09/21 00:30:18;;;;;;;;;;;;;;;7.84;100.00;102671.38;5030517;28;19928;-72
2022/09/21 00:32:43;;;;;;;;;;;;;;;7.84;100.00;102676.66;5029423;28;19933;-72
2022/09/21 00:35:09;;;;;;;;;;;;;;;7.83;100.00;102672.22;5031320;28;19936;-73
2022/09/21 00:37:35;;;;;;;;;;;;;;;7.81;100.00;102672.25;5063015;28;19971;-72
2022/09/21 00:40:00;;;;;;;;;;;;;;;7.80;100.00;102672.25;5049329;28;19964;-72
2022/09/21 00:42:27;;;;;;;;;;;;;;;7.77;100.00;102674.88;5032161;28;19928;-72
2022/09/21 00:44:53;;;;;;;;;;;;;;;7.74;100.00;102674.03;5027921;28;19925;-72
2022/09/21 00:47:20;;;;;;;;;;;;;;;7.75;100.00;102672.28;5061640;28;21337;-72
2022/09/21 00:49:48;;;;;;;;;;;;;;;7.73;100.00;102676.66;5030581;28;19928;-72
2022/09/21 00:52:14;;;;;;;;;;;;;;;7.71;100.00;102679.31;5029715;28;20423;-72
2022/09/21 00:54:41;;;;;;;;;;;;;;;7.69;100.00;102673.16;5062348;28;19925;-72
2022/09/21 00:57:06;;;;;;;;;;;;;;;7.67;100.00;102674.09;5060417;28;20455;-72
2022/09/21 00:59:33;;;;;;;;;;;;;;;7.65;100.00;102671.44;5062954;28;19954;-72
2022/09/21 01:01:59;;;;;;;;;;;;;;;7.61;100.00;102672.31;5031134;28;19929;-72
2022/09/21 01:04:25;;;;;;;;;;;;;;;7.59;100.00;102667.06;5030074;28;20005;-71
2022/09/21 01:06:51;;;;;;;;;;;;;;;7.58;100.00;102677.63;5029942;28;20383;-72
2022/09/21 01:09:16;;;;;;;;;;;;;;;7.56;100.00;102676.72;5029775;28;20034;-71
2022/09/21 01:11:42;;;;;;;;;;;;;;;7.53;100.00;102674.13;5061461;28;19948;-72
2022/09/21 01:14:11;;;;;;;;;;;;;;;7.51;100.00;102673.25;5030191;28;21087;-73
2022/09/21 01:16:55;;;;;;;;;;;;;;;7.50;100.00;102669.72;5028038;28;19932;-73
2022/09/21 01:19:39;;;;;;;;;;;;;;;7.47;100.00;102667.97;5027109;28;19929;-73
2022/09/21 01:22:14;;;;;;;;;;;;;;;7.46;100.00;102670.59;5029963;28;19935;-73
2022/09/21 01:24:44;;;;;;;;;;;;;;;7.43;100.00;102665.34;5030185;28;19924;-72
2022/09/21 01:27:42;;;;;;;;;;;;;;;7.40;100.00;102660.97;5060612;28;20348;-73
2022/09/21 01:30:09;;;;;;;;;;;;;;;7.39;100.00;102664.50;5031822;28;19924;-73
2022/09/21 01:32:39;;;;;;;;;;;;;;;7.36;100.00;102661.88;5062135;28;20526;-73
2022/09/21 01:35:05;;;;;;;;;;;;;;;7.36;100.00;102669.78;5028970;28;19946;-73
2022/09/21 01:37:38;;;;;;;;;;;;;;;7.33;100.00;102669.78;5042663;28;19936;-73
2022/09/21 01:40:05;;;;;;;;;;;;;;;7.31;100.00;102667.13;5031027;28;19936;-73
2022/09/21 01:42:30;;;;;;;;;;;;;;;7.31;100.00;102675.03;5028179;28;19924;-73
2022/09/21 01:44:57;;;;;;;;;;;;;;;7.29;100.00;102668.91;5026755;28;19928;-73
2022/09/21 01:47:24;;;;;;;;;;;;;;;7.29;100.00;102668.00;5028238;28;20509;-72
2022/09/21 01:49:50;;;;;;;;;;;;;;;7.24;100.00;102665.41;5061675;28;19933;-73
2022/09/21 01:52:25;;;;;;;;;;;;;;;7.20;100.00;102659.25;5061009;28;20017;-73
2022/09/21 01:54:51;;;;;;;;;;;;;;;7.19;100.00;102664.53;5059977;28;19929;-73
2022/09/21 01:57:17;;;;;;;;;;;;;;;7.18;100.00;102661.03;5060334;28;19924;-73
2022/09/21 01:59:50;;;;;;;;;;;;;;;7.17;100.00;102668.94;5030200;28;19925;-73
2022/09/21 02:02:17;;;;;;;;;;;;;;;7.15;100.00;102663.66;5038316;28;21186;-73
2022/09/21 02:04:42;;;;;;;;;;;;;;;7.14;100.00;102667.19;5060544;28;19998;-72
2022/09/21 02:07:07;;;;;;;;;;;;;;;7.13;100.00;102662.78;5028613;28;19929;-73
2022/09/21 02:09:33;;;;;;;;;;;;;;;7.11;100.00;102661.94;5028004;28;20334;-73
2022/09/21 02:12:01;;;;;;;;;;;;;;;7.11;100.00;102664.56;5060739;28;19925;-72
2022/09/21 02:14:27;;;;;;;;;;;;;;;7.11;100.00;102664.56;5029288;28;19971;-73
2022/09/21 02:16:55;;;;;;;;;;;;;;;7.11;100.00;102667.19;5028864;28;20011;-72
2022/09/21 02:19:25;;;;;;;;;;;;;;;7.09;100.00;102666.34;5029730;28;20018;-72
2022/09/21 02:22:09;;;;;;;;;;;;;;;7.07;100.00;102668.06;5029871;28;21609;-73
2022/09/21 02:24:40;;;;;;;;;;;;;;;7.05;100.00;102670.72;5028899;28;19925;-72
2022/09/21 02:27:08;;;;;;;;;;;;;;;7.03;100.00;102667.19;5030191;28;20308;-72
2022/09/21 02:30:00;;;;;;;;;;;;;;;7.02;100.00;102670.72;5045447;28;19925;-72
2022/09/21 02:32:32;;;;;;;;;;;;;;;7.04;100.00;102673.34;5028420;28;20413;-73
2022/09/21 02:35:02;;;;;;;;;;;;;;;7.02;100.00;102675.97;5060416;28;19952;-73
2022/09/21 02:37:30;;;;;;;;;;;;;;;7.01;100.00;102668.06;5029016;28;19978;-72
2022/09/21 02:39:57;;;;;;;;;;;;;;;6.98;100.00;102676.00;5061578;28;19925;-72
2022/09/21 02:42:26;;;;;;;;;;;;;;;6.95;100.00;102674.22;5061529;28;20853;-73
2022/09/21 02:45:13;;;;;;;;;;;;;;;6.96;100.00;102675.13;5041028;28;20016;-72
2022/09/21 02:47:41;;;;;;;;;;;;;;;6.94;100.00;102677.75;5028172;28;19929;-72
2022/09/21 02:50:08;;;;;;;;;;;;;;;6.95;100.00;102671.59;5026742;28;19948;-72
2022/09/21 02:52:34;;;;;;;;;;;;;;;6.93;100.00;102671.59;5027843;28;19928;-72
2022/09/21 02:54:59;;;;;;;;;;;;;;;6.92;100.00;102663.72;5063088;28;19928;-72
2022/09/21 02:57:25;;;;;;;;;;;;;;;6.92;100.00;102663.72;5015683;28;19929;-72
2022/09/21 02:59:50;;;;;;;;;;;;;;;6.91;100.00;102670.72;5055429;28;19979;-72
2022/09/21 03:02:16;;;;;;;;;;;;;;;6.90;100.00;102671.59;5063504;28;19955;-72
2022/09/21 03:04:42;;;;;;;;;;;;;;;6.89;100.00;102669.84;5063733;28;19929;-72
2022/09/21 03:07:08;;;;;;;;;;;;;;;6.91;100.00;102672.47;5032751;28;20449;-72
2022/09/21 03:09:33;;;;;;;;;;;;;;;6.91;100.00;102670.72;5062494;28;19924;-72
2022/09/21 03:11:59;;;;;;;;;;;;;;;6.89;100.00;102664.59;5064124;28;20303;-72
2022/09/21 03:14:26;;;;;;;;;;;;;;;6.88;100.00;102672.47;5064179;28;19929;-72
2022/09/21 03:16:53;;;;;;;;;;;;;;;6.87;100.00;102676.88;5033119;28;19991;-72
2022/09/21 03:19:18;;;;;;;;;;;;;;;6.85;100.00;102668.09;5034438;28;19928;-72
2022/09/21 03:21:44;;;;;;;;;;;;;;;6.83;100.00;102676.88;5047974;28;19940;-72
2022/09/21 03:24:09;;;;;;;;;;;;;;;6.81;100.00;102679.50;5032793;28;19932;-72
2022/09/21 03:26:35;;;;;;;;;;;;;;;6.80;100.00;102677.75;5031529;28;20648;-73
2022/09/21 03:29:00;;;;;;;;;;;;;;;6.79;100.00;102678.63;5064249;28;19929;-72
2022/09/21 03:31:26;;;;;;;;;;;;;;;6.81;100.00;102681.28;5065003;28;19928;-72
2022/09/21 03:33:51;;;;;;;;;;;;;;;6.82;100.00;102683.91;5031468;28;19929;-72
2022/09/21 03:36:17;;;;;;;;;;;;;;;6.82;100.00;102678.66;5030539;28;19929;-72
2022/09/21 03:38:43;;;;;;;;;;;;;;;6.82;100.00;102672.50;5031691;28;19932;-72
2022/09/21 03:41:08;;;;;;;;;;;;;;;6.81;100.00;102682.13;5032728;28;19928;-72
2022/09/21 03:43:33;;;;;;;;;;;;;;;6.79;100.00;102678.63;5032742;28;19963;-72
2022/09/21 03:45:59;;;;;;;;;;;;;;;6.78;100.00;102687.41;5032782;28;20531;-72
2022/09/21 03:48:24;;;;;;;;;;;;;;;6.78;100.00;102687.41;5032659;28;19951;-72
2022/09/21 03:50:50;;;;;;;;;;;;;;;6.76;100.00;102678.63;5064700;28;19964;-72
2022/09/21 03:53:15;;;;;;;;;;;;;;;6.74;100.00;102685.63;5030768;28;19946;-71
2022/09/21 03:55:41;;;;;;;;;;;;;;;6.71;100.00;102675.97;5064674;28;20092;-72
2022/09/21 03:58:06;;;;;;;;;;;;;;;6.70;100.00;102679.50;5063672;28;19929;-72
2022/09/21 04:00:32;;;;;;;;;;;;;;;6.70;100.00;102690.03;5065116;28;19932;-72
2022/09/21 04:02:57;;;;;;;;;;;;;;;6.70;100.00;102683.91;5047796;28;19932;-72
2022/09/21 04:05:23;;;;;;;;;;;;;;;6.69;100.00;102682.16;5064502;28;19936;-72
2022/09/21 04:07:48;;;;;;;;;;;;;;;6.68;100.00;102680.38;5033529;28;19933;-72
2022/09/21 04:10:18;;;;;;;;;;;;;;;6.69;100.00;102682.16;5032599;28;19932;-72
2022/09/21 04:12:44;;;;;;;;;;;;;;;6.71;100.00;102686.50;5030443;28;19931;-72
2022/09/21 04:15:13;;;;;;;;;;;;;;;6.74;100.00;102689.16;5065292;28;19924;-72
2022/09/21 04:17:39;;;;;;;;;;;;;;;6.77;100.00;102685.66;5047585;28;21321;-71
2022/09/21 04:20:05;;;;;;;;;;;;;;;6.80;100.00;102683.00;5064044;28;19928;-71
2022/09/21 04:22:30;;;;;;;;;;;;;;;6.82;100.00;102686.53;5047948;28;19929;-71
2022/09/21 04:24:56;;;;;;;;;;;;;;;6.83;100.00;102676.88;5031823;28;19929;-71
2022/09/21 04:27:21;;;;;;;;;;;;;;;6.84;100.00;102678.63;5063299;28;19929;-72
2022/09/21 04:29:47;;;;;;;;;;;;;;;6.86;100.00;102682.16;5032051;28;20414;-73
2022/09/21 04:32:13;;;;;;;;;;;;;;;6.85;100.00;102683.00;5031802;28;19932;-71
2022/09/21 04:34:38;;;;;;;;;;;;;;;6.83;100.00;102680.41;5063672;28;19964;-72
2022/09/21 04:37:04;;;;;;;;;;;;;;;6.79;100.00;102679.53;5032811;28;19929;-71
2022/09/21 04:39:30;;;;;;;;;;;;;;;6.77;100.00;102678.63;5031777;28;19932;-72
2022/09/21 04:41:55;;;;;;;;;;;;;;;6.75;100.00;102679.53;5031134;28;19933;-72
2022/09/21 04:44:21;;;;;;;;;;;;;;;6.72;100.00;102677.75;5032139;28;20223;-72
2022/09/21 04:46:46;;;;;;;;;;;;;;;6.69;100.00;102679.53;5060922;28;20368;-72
2022/09/21 04:49:12;;;;;;;;;;;;;;;6.68;100.00;102675.09;5031115;28;20401;-71
2022/09/21 04:51:37;;;;;;;;;;;;;;;6.65;100.00;102681.28;5030432;28;19924;-72
2022/09/21 04:54:03;;;;;;;;;;;;;;;6.60;100.00;102681.25;5030498;28;20062;-71
2022/09/21 04:56:29;;;;;;;;;;;;;;;6.58;100.00;102680.38;5031621;28;19928;-71
2022/09/21 04:58:54;;;;;;;;;;;;;;;6.56;100.00;102682.13;5043672;28;19928;-72
2022/09/21 05:01:19;;;;;;;;;;;;;;;6.54;100.00;102680.38;5046539;28;21235;-71
2022/09/21 05:03:45;;;;;;;;;;;;;;;6.51;100.00;102684.78;5028651;28;21525;-71
2022/09/21 05:06:12;;;;;;;;;;;;;;;6.50;100.00;102685.63;5029327;28;20322;-71
2022/09/21 05:11:22;;;;;;;;;;;;;;;6.46;100.00;102686.50;5030042;28;20398;-71
2022/09/21 05:13:47;;;;;;;;;;;;;;;6.45;100.00;102694.41;5061375;28;20387;-72
2022/09/21 05:16:13;;;;;;;;;;;;;;;6.43;100.00;102696.16;5030514;28;19932;-72
2022/09/21 05:18:39;;;;;;;;;;;;;;;6.41;100.00;102690.00;5029025;28;20469;-72
2022/09/21 05:21:07;;;;;;;;;;;;;;;6.38;100.00;102697.00;5030391;28;19937;-72
2022/09/21 05:23:32;;;;;;;;;;;;;;;6.36;100.00;102696.13;5030605;28;20025;-72
2022/09/21 05:25:58;;;;;;;;;;;;;;;6.36;100.00;102696.13;5030606;28;19929;-72
2022/09/21 05:28:24;;;;;;;;;;;;;;;6.36;100.00;102696.13;5030055;28;20453;-72
2022/09/21 05:31:01;;;;;;;;;;;;;;;6.38;100.00;102704.03;5060912;28;19964;-72
2022/09/21 05:33:28;;;;;;;;;;;;;;;6.37;100.00;102697.91;5030941;28;19925;-72
2022/09/21 05:36:08;;;;;;;;;;;;;;;6.38;100.00;102698.78;5031262;28;19933;-72
2022/09/21 05:38:34;;;;;;;;;;;;;;;6.38;100.00;102699.66;5030721;28;19929;-72
2022/09/21 05:41:00;;;;;;;;;;;;;;;6.38;100.00;102712.78;5029896;28;19931;-72
2022/09/21 05:43:25;;;;;;;;;;;;;;;6.41;100.00;102708.41;5062312;28;19925;-72
2022/09/21 05:45:52;;;;;;;;;;;;;;;6.41;100.00;102700.50;5030346;28;19929;-72
2022/09/21 05:48:22;;;;;;;;;;;;;;;6.41;100.00;102701.41;5061398;28;19929;-72
2022/09/21 05:50:56;;;;;;;;;;;;;;;6.42;100.00;102702.28;5029595;28;19932;-72
2022/09/21 05:53:31;;;;;;;;;;;;;;;6.43;100.00;102706.69;5061803;28;19975;-72
2022/09/21 05:55:57;;;;;;;;;;;;;;;6.43;100.00;102701.41;5061707;28;19928;-72
2022/09/21 05:58:29;;;;;;;;;;;;;;;6.43;100.00;102707.53;5061415;28;19924;-72
2022/09/21 06:01:07;;;;;;;;;;;;;;;6.45;100.00;102710.19;5030487;28;19925;-72
2022/09/21 06:03:35;;;;;;;;;;;;;;;6.47;100.00;102711.94;5030256;28;19968;-72
2022/09/21 06:06:00;;;;;;;;;;;;;;;6.49;100.00;102711.97;5060899;28;19935;-72
2022/09/21 06:08:26;;;;;;;;;;;;;;;6.52;100.00;102714.56;5029025;28;19929;-73
2022/09/21 06:10:51;;;;;;;;;;;;;;;6.55;100.00;102714.59;5061560;28;20111;-73
2022/09/21 06:13:16;;;;;;;;;;;;;;;6.58;100.00;102721.63;5060804;28;20010;-72
2022/09/21 06:15:42;;;;;;;;;;;;;;;6.62;100.00;102716.38;5042467;28;21245;-72
2022/09/21 06:18:07;;;;;;;;;;;;;;;6.66;100.00;102718.09;5029848;28;19960;-73
2022/09/21 06:20:33;;;;;;;;;;;;;;;6.71;100.00;102720.72;5028210;28;19925;-72
2022/09/21 06:23:02;;;;;;;;;;;;;;;6.76;100.00;102721.63;5028573;28;19929;-73
2022/09/21 06:25:27;;;;;;;;;;;;;;;6.80;100.00;102719.88;5029039;28;20877;-73
2022/09/21 06:27:53;;;;;;;;;;;;;;;6.86;100.00;102714.59;5028632;28;19960;-72
2022/09/21 06:30:19;;;;;;;;;;;;;;;6.92;100.00;102711.13;5060342;28;19929;-72
2022/09/21 06:32:44;;;;;;;;;;;;;;;6.99;100.00;102722.50;5041998;28;20019;-72
2022/09/21 06:35:10;;;;;;;;;;;;;;;7.05;100.00;102718.13;5027451;28;19978;-73
2022/09/21 06:37:37;;;;;;;;;;;;;;;7.11;100.00;102717.25;5028338;28;20600;-71
2022/09/21 06:40:02;;;;;;;;;;;;;;;7.20;100.00;102711.94;5060467;28;20452;-71
2022/09/21 06:42:28;;;;;;;;;;;;;;;7.28;100.00;102718.97;5029092;28;19929;-71
2022/09/21 06:44:54;;;;;;;;;;;;;;;7.36;100.00;102716.31;5028462;28;19929;-71
2022/09/21 06:47:19;;;;;;;;;;;;;;;7.40;100.00;102708.41;5030539;28;20633;-70
2022/09/21 06:49:45;;;;;;;;;;;;;;;7.45;100.00;102714.56;5060987;28;21325;-71
2022/09/21 06:52:10;;;;;;;;;;;;;;;7.53;100.00;102708.38;5012854;28;19936;-70
2022/09/21 06:54:36;;;;;;;;;;;;;;;7.62;100.00;102710.97;5029877;28;19952;-70
2022/09/21 06:57:02;;;;;;;;;;;;;;;7.70;100.00;102710.97;5028434;28;20059;-70
2022/09/21 06:59:27;;;;;;;;;;;;;;;7.79;100.00;102725.88;5028641;28;19940;-70
2022/09/21 07:01:56;;;;;;;;;;;;;;;7.84;100.00;102718.84;5043286;28;20747;-70
2022/09/21 07:04:23;;;;;;;;;;;;;;;7.90;100.00;102717.94;5030478;28;19929;-70
2022/09/21 07:06:49;;;;;;;;;;;;;;;7.98;100.00;102713.50;5026508;28;19925;-71
2022/09/21 07:09:14;;;;;;;;;;;;;;;8.06;100.00;102713.47;5028204;28;20089;-72
2022/09/21 07:11:40;;;;;;;;;;;;;;;8.13;100.00;102720.47;5028387;28;21978;-70
2022/09/21 07:14:06;;;;;;;;;;;;;;;8.22;100.00;102720.41;5027172;28;20006;-71
2022/09/21 07:16:32;;;;;;;;;;;;;;;8.32;100.00;102715.09;5030099;28;20404;-72
2022/09/21 07:18:58;;;;;;;;;;;;;;;8.43;100.00;102723.78;5029171;28;19936;-71
2022/09/21 07:21:23;;;;;;;;;;;;;;;8.57;100.00;102723.75;5026653;28;19986;-71
2022/09/21 07:23:48;;;;;;;;;;;;;;;8.71;100.00;102718.34;5031974;28;19929;-71
2022/09/21 07:26:14;;;;;;;;;;;;;;;8.85;100.00;102726.19;5028633;28;19932;-71
2022/09/21 07:28:39;;;;;;;;;;;;;;;8.95;100.00;102721.69;5025231;28;19929;-71
2022/09/21 07:31:12;;;;;;;;;;;;;;;9.07;100.00;102721.59;5059927;28;19937;-72
2022/09/21 07:33:38;;;;;;;;;;;;;;;9.18;100.00;102726.78;5059756;28;19921;-71
2022/09/21 07:36:09;;;;;;;;;;;;;;;9.27;100.00;102725.81;5029041;28;19960;-71
2022/09/21 07:38:40;;;;;;;;;;;;;;;9.38;100.00;102725.72;5031154;28;19928;-71
2022/09/21 07:41:06;;;;;;;;;;;;;;;9.52;100.00;102728.19;5035697;28;19931;-72
2022/09/21 07:43:32;;;;;;;;;;;;;;;9.64;100.00;102728.06;5040327;28;19921;-72
2022/09/21 07:45:58;;;;;;;;;;;;;;;9.78;100.00;102721.72;5043811;28;20681;-72
2022/09/21 07:48:24;;;;;;;;;;;;;;;9.92;100.00;102726.88;5046257;28;21218;-72
2022/09/21 07:50:49;;;;;;;;;;;;;;;10.07;100.00;102722.28;5047328;28;20087;-73
2022/09/21 07:53:15;;;;;;;;;;;;;;;10.22;100.00;102723.81;5046174;28;19929;-73
2022/09/21 07:55:41;;;;;;;;;;;;;;;10.33;100.00;102724.53;5045859;28;19938;-73
2022/09/21 08:00:51;;;;;;;;;;;;;;;10.64;100.00;102728.53;5049075;28;20518;-73
2022/09/21 08:03:16;;;;;;;;;;;;;;;10.84;100.00;102729.09;5080290;28;19955;-73
2022/09/21 08:05:42;;;;;;;;;;;;;;;11.03;100.00;102733.22;5047564;28;19985;-72
2022/09/21 08:08:07;;;;;;;;;;;;;;;11.19;100.00;102734.69;5049228;28;19929;-72
2022/09/21 08:10:34;;;;;;;;;;;;;;;11.34;100.00;102730.88;5038849;28;20272;-72
2022/09/21 08:12:59;;;;;;;;;;;;;;;11.49;100.00;102735.03;5043224;28;20017;-72
2022/09/21 08:15:26;;;;;;;;;;;;;;;11.60;100.00;102726.00;5042720;28;20028;-74
2022/09/21 08:17:52;;;;;;;;;;;;;;;11.76;100.00;102726.56;5044837;28;19943;-72
2022/09/21 08:20:17;;;;;;;;;;;;;;;11.91;100.00;102728.00;5044513;28;20019;-72
2022/09/21 08:22:43;;;;;;;;;;;;;;;12.03;100.00;102735.75;5044625;28;20398;-72
2022/09/21 08:25:09;;;;;;;;;;;;;;;12.16;100.00;102743.44;5041409;28;20136;-72
2022/09/21 08:27:35;;;;;;;;;;;;;;;12.27;100.00;102736.13;5044280;28;19939;-72
2022/09/21 08:30:01;;;;;;;;;;;;;;;12.35;100.00;102734.16;5043297;28;19932;-71
2022/09/21 08:32:27;;;;;;;;;;;;;;;12.43;100.00;102730.47;5042285;28;20474;-73
2022/09/21 08:34:53;;;;;;;;;;;;;;;12.49;100.00;102736.50;5040453;28;19924;-74
2022/09/21 08:37:20;;;;;;;;;;;;;;;12.59;100.00;102738.94;5042828;28;20019;-73
2022/09/21 08:39:46;;;;;;;;;;;;;;;12.62;100.00;102734.44;5042454;28;19990;-73
2022/09/21 08:42:18;;;;;;;;;;;;;;;12.67;100.00;102744.06;5042163;28;20477;-72
2022/09/21 08:44:55;;;;;;;;;;;;;;;12.71;100.00;102741.31;5043368;28;19928;-72
2022/09/21 08:47:28;;;;;;;;;;;;;;;12.74;100.00;102743.00;5043683;28;19929;-72
2022/09/21 08:49:54;;;;;;;;;;;;;;;12.79;100.00;102751.75;5043117;28;19929;-72
2022/09/21 08:52:20;;;;;;;;;;;;;;;12.87;100.00;102746.25;5041651;28;19924;-72
2022/09/21 08:54:54;;;;;;;;;;;;;;;12.90;100.00;102747.03;5045323;28;19935;-72
2022/09/21 08:57:20;;;;;;;;;;;;;;;12.95;100.00;102746.03;5058438;28;19928;-72
2022/09/21 08:59:46;;;;;;;;;;;;;;;12.99;100.00;102750.38;5040434;28;20388;-73
2022/09/21 09:02:27;;;;;;;;;;;;;;;13.05;100.00;102744.91;5041447;28;19936;-73
2022/09/21 09:04:56;;;;;;;;;;;;;;;13.13;100.00;102742.91;5043598;28;19935;-72
2022/09/21 09:07:25;;;;;;;;;;;;;;;13.22;100.00;102743.56;5041942;28;19964;-72
2022/09/21 09:09:53;;;;;;;;;;;;;;;13.30;98.40;102747.78;5057358;28;20581;-72
2022/09/21 09:12:24;;;;;;;;;;;;;;;13.39;98.24;102745.78;5039936;28;20404;-72
2022/09/21 09:15:05;;;;;;;;;;;;;;;13.46;98.05;102743.88;5043162;28;19929;-72
2022/09/21 09:17:49;;;;;;;;;;;;;;;13.57;97.88;102737.34;5040468;28;19925;-72
2022/09/21 09:20:19;;;;;;;;;;;;;;;13.64;97.72;102743.38;5042932;28;20405;-72
2022/09/21 09:22:46;;;;;;;;;;;;;;;13.68;95.71;102745.03;5043080;28;19928;-72
2022/09/21 09:25:32;;;;;;;;;;;;;;;13.71;95.10;102747.59;5041068;28;19925;-71
2022/09/21 09:27:58;;;;;;;;;;;;;;;13.79;91.95;102751.84;5040923;28;20007;-72
2022/09/21 09:30:24;;;;;;;;;;;;;;;13.81;92.36;102752.66;5041132;28;20332;-71
2022/09/21 09:32:52;;;;;;;;;;;;;;;13.85;92.66;102751.66;5041046;28;21247;-72
2022/09/21 09:35:35;;;;;;;;;;;;;;;13.88;91.70;102753.38;5041783;28;19924;-72
2022/09/21 09:38:08;;;;;;;;;;;;;;;13.92;91.92;102747.91;5043117;28;19925;-72
2022/09/21 09:40:52;;;;;;;;;;;;;;;14.02;90.93;102745.84;5039497;28;21321;-72
2022/09/21 09:43:24;;;;;;;;;;;;;;;14.07;90.91;102754.56;5042550;28;19935;-71
2022/09/21 09:45:53;;;;;;;;;;;;;;;14.17;91.23;102752.47;5040921;28;20303;-72
2022/09/21 09:48:25;;;;;;;;;;;;;;;14.19;88.06;102748.00;5041772;28;19933;-72
2022/09/21 09:50:51;;;;;;;;;;;;;;;14.19;88.24;102756.00;5041918;28;20515;-72
2022/09/21 09:53:17;;;;;;;;;;;;;;;14.23;89.66;102752.28;5042729;28;19968;-72
2022/09/21 09:55:44;;;;;;;;;;;;;;;14.23;89.72;102748.78;5040458;28;20701;-72
2022/09/21 09:58:17;;;;;;;;;;;;;;;14.21;87.59;102759.47;5024446;28;19925;-72
2022/09/21 10:00:42;;;;;;;;;;;;;;;14.20;86.83;102756.84;5039831;28;19924;-72
2022/09/21 10:03:15;;;;;;;;;;;;;;;14.15;87.07;102749.00;5040739;28;20282;-72
2022/09/21 10:05:41;;;;;;;;;;;;;;;14.13;86.40;102756.16;5041693;28;19936;-72
2022/09/21 10:08:18;;;;;;;;;;;;;;;14.09;84.97;102750.06;5042350;28;20453;-71
2022/09/21 10:10:44;;;;;;;;;;;;;;;14.10;85.23;102750.91;5040811;28;20404;-72
2022/09/21 10:13:18;;;;;;;;;;;;;;;14.09;84.89;102749.19;5057999;28;19982;-72
2022/09/21 10:16:18;;;;;;;;;;;;;;;14.12;85.81;102746.44;5041838;28;20365;-71
2022/09/21 10:18:44;;;;;;;;;;;;;;;14.15;86.37;102750.81;5027122;28;19932;-72
2022/09/21 10:21:48;;;;;;;;;;;;;;;14.20;86.56;102744.41;5035842;28;19928;-72
2022/09/21 10:24:16;;;;;;;;;;;;;;;14.24;86.54;102743.41;5024123;28;19925;-73
2022/09/21 10:26:49;;;;;;;;;;;;;;;14.30;86.92;102739.66;5038085;28;19936;-72
2022/09/21 10:29:21;;;;;;;;;;;;;;;14.31;84.84;102744.06;5034225;28;19924;-72
2022/09/21 10:31:59;;;;;;;;;;;;;;;14.30;84.82;102749.44;5041113;28;19999;-72
2022/09/21 10:34:26;;;;;;;;;;;;;;;14.28;83.36;102743.31;5040461;28;20497;-72
2022/09/21 10:36:56;;;;;;;;;;;;;;;14.25;83.90;102737.16;5039612;28;19929;-72
2022/09/21 10:39:21;;;;;;;;;;;;;;;14.25;83.32;102729.16;5042435;28;19933;-72
2022/09/21 10:41:50;;;;;;;;;;;;;;;14.27;83.53;102734.41;5040754;28;19935;-71
2022/09/21 10:44:16;;;;;;;;;;;;;;;14.32;83.59;102734.31;5042064;28;19928;-71
2022/09/21 10:46:42;;;;;;;;;;;;;;;14.31;83.79;102732.53;5040821;28;20015;-71
2022/09/21 10:49:15;;;;;;;;;;;;;;;14.26;82.62;102727.34;5041048;28;19928;-71
2022/09/21 10:51:40;;;;;;;;;;;;;;;14.26;82.72;102724.69;5057455;28;20074;-71
2022/09/21 10:54:09;;;;;;;;;;;;;;;14.24;81.88;102726.53;5027118;28;20523;-71
2022/09/21 10:56:34;;;;;;;;;;;;;;;14.22;81.84;102726.59;5073460;28;20365;-73
2022/09/21 10:59:18;;;;;;;;;;;;;;;14.24;81.71;102724.75;5072971;28;20263;-72
2022/09/21 11:01:48;;;;;;;;;;;;;;;14.26;81.06;102724.69;5040327;28;19929;-71
2022/09/21 11:04:16;;;;;;;;;;;;;;;14.34;81.90;102724.47;5038729;28;19931;-71
2022/09/21 11:06:43;;;;;;;;;;;;;;;14.34;79.41;102721.81;5039181;28;20414;-71
2022/09/21 11:09:11;;;;;;;;;;;;;;;14.39;80.08;102719.88;5055968;28;19928;-71
2022/09/21 11:11:43;;;;;;;;;;;;;;;14.43;77.94;102721.50;5072221;28;21255;-72
2022/09/21 11:14:18;;;;;;;;;;;;;;;14.42;75.76;102721.56;5054683;28;20007;-72
2022/09/21 11:16:49;;;;;;;;;;;;;;;14.37;74.34;102721.69;5044390;28;19935;-72
2022/09/21 11:19:20;;;;;;;;;;;;;;;14.32;74.48;102713.00;5075272;28;20683;-71
2022/09/21 11:21:56;;;;;;;;;;;;;;;14.25;74.02;102723.84;5044822;28;20441;-69
2022/09/21 11:24:41;;;;;;;;;;;;;;;14.22;73.88;102713.25;5027036;28;19935;-72
2022/09/21 11:27:16;;;;;;;;;;;;;;;14.22;76.72;102723.91;5046830;28;19929;-70
2022/09/21 11:29:41;;;;;;;;;;;;;;;14.21;76.79;102714.19;5047976;28;19985;-70
2022/09/21 11:32:15;;;;;;;;;;;;;;;14.25;77.14;102718.50;5047749;28;20737;-71
2022/09/21 11:34:54;;;;;;;;;;;;;;;14.28;76.71;102722.00;5046826;28;19924;-70
2022/09/21 11:37:29;;;;;;;;;;;;;;;14.26;76.69;102709.59;5045304;28;21268;-73
2022/09/21 11:40:01;;;;;;;;;;;;;;;14.28;75.71;102706.88;5059633;28;19924;-70
2022/09/21 11:42:32;;;;;;;;;;;;;;;14.28;76.00;102711.34;5044438;28;19987;-70
2022/09/21 11:44:58;;;;;;;;;;;;;;;14.26;76.71;102701.59;5047127;28;19932;-72
2022/09/21 11:47:24;;;;;;;;;;;;;;;14.29;76.79;102707.75;5044187;28;20108;-72
2022/09/21 11:49:53;;;;;;;;;;;;;;;14.31;76.13;102706.78;5045987;28;20019;-72
2022/09/21 11:52:34;;;;;;;;;;;;;;;14.29;76.58;102703.31;5044901;28;19928;-71
2022/09/21 11:55:12;;;;;;;;;;;;;;;14.26;76.00;102704.28;5046370;28;20043;-72
2022/09/21 11:58:01;;;;;;;;;;;;;;;14.26;74.73;102703.38;5044744;28;20641;-72
2022/09/21 12:00:28;;;;;;;;;;;;;;;14.31;75.77;102703.22;5048673;28;20446;-71
2022/09/21 12:03:06;;;;;;;;;;;;;;;14.30;75.83;102701.50;5046804;28;19924;-72
2022/09/21 12:05:40;;;;;;;;;;;;;;;14.28;75.23;102698.00;5047011;28;19929;-72
2022/09/21 12:08:15;;;;;;;;;;;;;;;14.24;75.44;102700.78;5046661;28;19975;-71
2022/09/21 12:10:45;;;;;;;;;;;;;;;14.26;76.42;102693.63;5046602;28;19924;-71
2022/09/21 12:13:35;;;;;;;;;;;;;;;14.23;76.30;102696.34;5034146;28;20458;-71
2022/09/21 12:16:19;;;;;;;;;;;;;;;14.22;76.63;102699.94;5050408;28;19939;-71
2022/09/21 12:18:54;;;;;;;;;;;;;;;14.19;76.63;102694.72;5053196;28;20485;-71
2022/09/21 12:21:20;;;;;;;;;;;;;;;14.21;77.50;102690.22;5046219;28;20444;-72
2022/09/21 12:23:47;;;;;;;;;;;;;;;14.24;77.28;102691.91;5048170;28;19924;-72
2022/09/21 12:26:15;;;;;;;;;;;;;;;14.23;76.33;102693.69;5046469;28;19963;-71
2022/09/21 12:28:41;;;;;;;;;;;;;;;14.20;75.83;102693.81;5045403;28;19928;-71
2022/09/21 12:31:29;;;;;;;;;;;;;;;14.19;75.45;102689.41;5047414;28;19936;-71
2022/09/21 12:33:56;;;;;;;;;;;;;;;14.16;75.21;102683.28;5045452;28;20087;-71
2022/09/21 12:36:27;;;;;;;;;;;;;;;14.12;75.46;102686.03;5045186;28;19961;-72
2022/09/21 12:38:53;;;;;;;;;;;;;;;14.07;75.59;102681.78;5048236;28;19975;-72
2022/09/21 12:41:38;;;;;;;;;;;;;;;14.06;75.66;102682.72;5061692;28;20043;-72
2022/09/21 12:44:03;;;;;;;;;;;;;;;14.06;75.42;102682.72;5046952;28;19979;-71
2022/09/21 12:46:33;;;;;;;;;;;;;;;14.05;75.83;102673.84;5045017;28;19930;-72
2022/09/21 12:49:07;;;;;;;;;;;;;;;14.04;74.65;102676.53;5039105;28;19933;-72